Chippewa County International Airport
KCIU : now visible

Airfield :











YOU CAN JOIN US ON...

 
LOGIN :

Register | Disclaimer

   EN    FR    IT 

 









Legend :    VFR   Marginal VFR   IFR   Intensive IFR   Very Intensive IFR
Visi :
Ceiling :
>= 8 km
>= 3000ft
5 to 8 km
1000 to 3000 ft
1500m to 5 km
500 to 1000 ft
800 to 1500m
200 to 500 ft
< 800m
< 200 ft
Symbols :   Thunderstorms  Fog  Heavy snow  Heavy precipitations  Wind > 20 kt






- Airport Elevation : 800 ft
- IATA code : CIU


KCIU - Chippewa County International

CURRENT METAR :
  • 021256Z AUTO 18008KT 10SM CLR M01/M05 A2996 RMK AO2 SLP158 T10061050 FZRANO

EXPIRED METARs :
  • 021156Z AUTO 17008KT 10SM CLR M01/M06 A2997 RMK AO2 SLP160 T10111061 11006 21022 56022 FZRANO
  • 021056Z AUTO 17009KT 10SM FEW026 M01/M06 A2998 RMK AO2 SLP163 T10061061 FZRANO

TAF KCIU
Valid from the 02 at 12:00 until the 03 at 12:00 UTC


021120Z 0212/0312 16011G20KT P6SM SCT040 BKN080
FM030600 18010G18KT P6SM VCSH SCT015 OVC025
FM030900 25012G21KT 3SM -SHRA BR OVC015
FM031100 28017G29KT 2SM -SHRASN BR OVC015
KZMP FIR / North America



MET'MAP, your aeronautical weather chart ! - Copyright ORBIFLY December 2007 - Disclaimer

ORBIFLY MET'MAP TEAM :

Programming & Development : Alexandra Zaïnal
Original concept : Baudouin d'Aumeries
Technical & hardware support : Manuel Goepfert
Assistance : Marc-Olivier Méhu




SOURCES & CREDITS :

   NOAA       Earth
Advisory